Time;durP1;ratioP1;P1;durP2;ratioP2;P2;SDS_P1;SDS_P2;PMS_P1;PMS_P2;Temp;Humidity;BMP_temperature;BMP_pressure;BME280_temperature;BME280_humidity;BME280_pressure;Samples;Min_cycle;Max_cycle;Signal;HPM_P1;HPM_P2
2022/09/02 00:01:21;;;;;;;3.95;1.98;;;;;;;12.27;62.09;100528.97;1700737;83;21555;-68
2022/09/02 00:03:48;;;;;;;3.50;2.30;;;;;;;12.20;62.24;100538.39;1672236;85;21115;-67
2022/09/02 00:06:15;;;;;;;5.55;1.95;;;;;;;12.14;62.39;100536.25;1673076;84;21886;-67
2022/09/02 00:08:44;;;;;;;4.55;2.20;;;;;;;12.10;62.49;100538.81;1697888;84;21617;-68
2022/09/02 00:11:17;;;;;;;3.67;2.05;;;;;;;12.07;62.60;100535.09;1672359;84;21033;-68
2022/09/02 00:13:44;;;;;;;4.92;2.08;;;;;;;12.00;62.67;100536.56;1693324;83;21433;-68
2022/09/02 00:16:13;;;;;;;5.42;1.98;;;;;;;11.94;62.81;100544.52;1692033;83;21052;-68
2022/09/02 00:18:40;;;;;;;3.98;2.15;;;;;;;11.89;62.93;100540.59;1699082;83;21961;-67
2022/09/02 00:21:10;;;;;;;3.58;2.12;;;;;;;11.84;63.05;100550.20;1699293;83;21001;-68
2022/09/02 00:23:37;;;;;;;3.75;2.02;;;;;;;11.80;63.20;100555.41;1689249;83;21009;-67
2022/09/02 00:26:04;;;;;;;4.12;2.37;;;;;;;11.77;63.29;100551.64;1710714;82;21039;-70
2022/09/02 00:28:32;;;;;;;4.78;2.12;;;;;;;11.72;63.38;100554.67;1708855;82;21028;-68
2022/09/02 00:30:58;;;;;;;9.08;2.30;;;;;;;11.69;63.46;100554.93;1711079;82;21843;-68
2022/09/02 00:33:25;;;;;;;5.58;2.10;;;;;;;11.67;63.60;100552.03;1712000;82;21008;-68
2022/09/02 00:35:53;;;;;;;4.03;2.35;;;;;;;11.67;63.71;100558.64;1711744;82;21088;-67
2022/09/02 00:38:21;;;;;;;3.77;2.30;;;;;;;11.66;63.75;100561.77;1711692;83;21021;-67
2022/09/02 00:40:50;;;;;;;4.03;2.33;;;;;;;11.65;63.86;100559.25;1706488;82;21475;-69
2022/09/02 00:43:39;;;;;;;4.92;2.40;;;;;;;11.64;63.93;100561.55;1701798;84;22452;-68
2022/09/02 00:46:06;;;;;;;5.35;2.58;;;;;;;11.62;64.03;100565.64;1708747;82;21051;-68
2022/09/02 00:48:34;;;;;;;4.58;2.30;;;;;;;11.61;64.12;100563.97;1688178;84;20981;-68
2022/09/02 00:51:02;;;;;;;6.78;2.50;;;;;;;11.60;64.15;100562.28;1700230;84;21408;-67
2022/09/02 00:53:29;;;;;;;4.95;2.52;;;;;;;11.59;64.22;100569.03;1706901;82;21023;-67
2022/09/02 00:55:56;;;;;;;8.18;2.50;;;;;;;11.55;64.26;100578.16;1703715;82;21923;-69
2022/09/02 00:58:26;;;;;;;5.22;2.83;;;;;;;11.51;64.31;100578.06;1679557;83;21080;-67
2022/09/02 01:00:56;;;;;;;3.50;2.25;;;;;;;11.49;64.28;100578.19;1713204;82;21059;-68
2022/09/02 01:03:26;;;;;;;4.17;2.52;;;;;;;11.43;64.29;100579.50;1685825;83;21480;-67
2022/09/02 01:05:54;;;;;;;5.33;2.70;;;;;;;11.40;64.46;100586.37;1680970;83;21032;-67
2022/09/02 01:08:26;;;;;;;3.58;2.35;;;;;;;11.41;64.64;100587.21;1700149;83;21849;-68
2022/09/02 01:10:55;;;;;;;7.15;2.80;;;;;;;11.40;64.68;100592.98;1692185;83;21049;-68
2022/09/02 01:13:26;;;;;;;6.03;2.42;;;;;;;11.37;64.74;100597.66;1684942;83;21004;-71
2022/09/02 01:16:17;;;;;;;4.22;2.60;;;;;;;11.33;64.80;100590.94;1705090;82;21072;-68
2022/09/02 01:18:49;;;;;;;7.83;2.98;;;;;;;11.30;64.85;100596.48;1718387;82;36522;-68
2022/09/02 01:21:16;;;;;;;4.47;2.70;;;;;;;11.24;65.00;100600.44;1702501;83;21941;-68
2022/09/02 01:23:43;;;;;;;6.78;2.77;;;;;;;11.19;65.06;100601.26;1699713;83;21110;-68
2022/09/02 01:26:10;;;;;;;4.10;2.67;;;;;;;11.15;65.13;100607.28;1695723;83;21334;-68
2022/09/02 01:28:37;;;;;;;5.85;2.95;;;;;;;11.11;65.19;100599.23;1696305;83;21458;-68
2022/09/02 01:31:05;;;;;;;4.95;2.70;;;;;;;11.10;65.22;100600.69;1718545;82;21021;-69
2022/09/02 01:33:32;;;;;;;4.45;2.67;;;;;;;11.05;65.20;100598.86;1699236;83;22678;-69
2022/09/02 01:36:01;;;;;;;4.33;2.75;;;;;;;11.02;65.28;100605.23;1689486;84;21007;-68
2022/09/02 01:38:30;;;;;;;6.30;2.90;;;;;;;10.99;65.41;100603.30;1662840;85;21528;-68
2022/09/02 01:40:57;;;;;;;4.65;3.00;;;;;;;10.98;65.42;100616.15;1711071;82;21481;-68
2022/09/02 01:43:25;;;;;;;4.30;2.77;;;;;;;10.96;65.45;100618.08;1711929;83;21050;-69
2022/09/02 01:45:55;;;;;;;6.65;3.17;;;;;;;10.94;65.45;100613.39;1704468;82;22025;-68
2022/09/02 01:48:23;;;;;;;4.85;2.90;;;;;;;10.90;65.59;100620.70;1710103;83;21012;-68
2022/09/02 01:50:55;;;;;;;5.85;3.10;;;;;;;10.83;65.64;100618.19;1717733;82;21530;-68
2022/09/02 01:53:22;;;;;;;4.85;2.87;;;;;;;10.76;65.70;100621.77;1719020;82;21470;-68
2022/09/02 01:55:51;;;;;;;6.33;2.87;;;;;;;10.68;65.81;100629.43;1717230;82;21011;-69
2022/09/02 01:58:20;;;;;;;6.90;3.10;;;;;;;10.66;65.97;100625.23;1718676;82;21923;-68
2022/09/02 02:00:47;;;;;;;6.60;3.50;;;;;;;10.62;66.04;100629.91;1711888;82;21511;-68
2022/09/02 02:03:14;;;;;;;5.15;2.83;;;;;;;10.58;66.14;100631.08;1718225;83;21032;-68
2022/09/02 02:05:43;;;;;;;6.65;3.00;;;;;;;10.54;66.24;100632.28;1717534;82;20992;-68
2022/09/02 02:08:12;;;;;;;5.08;3.08;;;;;;;10.47;66.35;100633.69;1716458;83;21486;-67
2022/09/02 02:10:41;;;;;;;4.42;3.00;;;;;;;10.46;66.54;100625.41;1718510;82;21934;-67
2022/09/02 02:13:08;;;;;;;4.08;2.80;;;;;;;10.46;66.57;100630.21;1711999;82;21051;-68
2022/09/02 02:15:38;;;;;;;5.90;3.15;;;;;;;10.45;66.60;100626.37;1712664;82;20996;-68
2022/09/02 02:18:07;;;;;;;7.60;3.30;;;;;;;10.43;66.70;100632.25;1706093;82;21894;-68
2022/09/02 02:20:33;;;;;;;5.03;3.10;;;;;;;10.43;66.83;100636.20;1696865;82;21037;-66
2022/09/02 02:23:04;;;;;;;4.90;3.20;;;;;;;10.40;66.89;100636.41;1701655;83;21956;-67
2022/09/02 02:25:31;;;;;;;4.33;3.37;;;;;;;10.37;66.96;100637.50;1703013;83;21055;-68
2022/09/02 02:27:58;;;;;;;5.10;3.40;;;;;;;10.36;67.02;100642.41;1723026;81;21020;-68
2022/09/02 02:30:25;;;;;;;7.25;3.12;;;;;;;10.35;67.13;100635.94;1714338;81;22147;-69
2022/09/02 02:32:53;;;;;;;5.22;3.08;;;;;;;10.34;67.18;100636.89;1723636;81;21019;-69
2022/09/02 02:35:20;;;;;;;7.47;3.50;;;;;;;10.30;67.27;100638.90;1722868;81;21904;-68
2022/09/02 02:37:49;;;;;;;6.37;3.37;;;;;;;10.29;67.35;100638.53;1710746;81;21074;-68
2022/09/02 02:40:19;;;;;;;9.83;3.40;;;;;;;10.28;67.41;100636.86;1715334;81;21087;-68
2022/09/02 02:42:47;;;;;;;5.25;3.25;;;;;;;10.25;67.42;100644.53;1715692;81;21511;-68
2022/09/02 02:45:15;;;;;;;4.37;3.15;;;;;;;10.25;67.50;100644.53;1722216;83;21102;-69
2022/09/02 02:47:45;;;;;;;5.92;3.40;;;;;;;10.22;67.59;100645.22;1723158;83;21031;-67
2022/09/02 02:50:14;;;;;;;6.45;3.47;;;;;;;10.21;67.70;100640.38;1722763;81;21039;-67
2022/09/02 02:52:41;;;;;;;8.25;3.25;;;;;;;10.19;67.74;100648.06;1722159;81;21024;-68
2022/09/02 02:55:10;;;;;;;4.90;2.95;;;;;;;10.19;67.79;100655.98;1721011;83;21459;-67
2022/09/02 02:57:39;;;;;;;7.97;3.37;;;;;;;10.17;67.86;100657.41;1711161;81;21419;-68
2022/09/02 03:00:14;;;;;;;6.12;3.87;;;;;;;10.15;67.94;100655.38;1722373;81;21543;-68
2022/09/02 03:02:41;;;;;;;7.05;3.67;;;;;;;10.14;68.03;100656.33;1722642;81;20975;-68
2022/09/02 03:05:11;;;;;;;6.83;3.47;;;;;;;10.16;68.13;100669.41;1722910;83;21529;-67
2022/09/02 03:07:37;;;;;;;5.85;3.55;;;;;;;10.16;68.19;100664.97;1717488;81;21019;-68
2022/09/02 03:10:07;;;;;;;7.10;3.67;;;;;;;10.19;68.25;100663.90;1722473;81;21431;-69
2022/09/02 03:12:36;;;;;;;4.67;3.67;;;;;;;10.18;68.26;100665.70;1710739;82;21893;-68
2022/09/02 03:15:05;;;;;;;5.90;3.50;;;;;;;10.17;68.30;100673.25;1692960;82;21012;-73
2022/09/02 03:17:35;;;;;;;8.80;6.08;;;;;;;10.18;68.42;100674.09;1692539;82;21434;-68
2022/09/02 03:20:04;;;;;;;8.23;5.83;;;;;;;10.18;68.56;100674.94;1683348;82;21052;-68
2022/09/02 03:22:31;;;;;;;7.15;4.58;;;;;;;10.24;68.67;100681.13;1703071;82;21083;-68
2022/09/02 03:24:58;;;;;;;107.52;89.15;;;;;;;10.28;68.66;100682.58;1687832;83;22520;-68
2022/09/02 03:27:25;;;;;;;13.72;9.33;;;;;;;10.29;68.65;100689.54;1684231;83;21056;-69
2022/09/02 03:29:52;;;;;;;7.50;4.75;;;;;;;10.35;68.69;100684.78;1698183;82;21092;-68
2022/09/02 03:32:19;;;;;;;9.75;4.10;;;;;;;10.39;68.62;100687.06;1716596;82;21086;-68
2022/09/02 03:34:46;;;;;;;5.78;3.67;;;;;;;10.42;68.54;100689.95;1694962;82;21087;-68
2022/09/02 03:37:13;;;;;;;9.75;4.22;;;;;;;10.43;68.46;100693.83;1710158;83;21858;-69
2022/09/02 03:39:41;;;;;;;6.70;3.92;;;;;;;10.42;68.42;100699.20;1718106;82;20992;-70
2022/09/02 03:42:07;;;;;;;5.72;4.00;;;;;;;10.43;68.43;100704.87;1717892;82;21110;-69
2022/09/02 03:44:34;;;;;;;12.45;4.12;;;;;;;10.42;68.50;100703.16;1718823;82;21048;-68
2022/09/02 03:47:01;;;;;;;5.62;3.90;;;;;;;10.40;68.67;100699.31;1699595;82;21060;-68
2022/09/02 03:49:27;;;;;;;6.62;4.25;;;;;;;10.40;68.84;100702.43;1706753;82;21820;-69
2022/09/02 03:51:54;;;;;;;6.20;4.35;;;;;;;10.43;68.96;100708.83;1703842;82;21110;-69
2022/09/02 03:54:20;;;;;;;9.65;6.12;;;;;;;10.48;69.01;100711.95;1713042;82;21027;-69
2022/09/02 03:56:47;;;;;;;12.98;8.10;;;;;;;10.53;69.10;100721.24;1718443;83;21494;-68
2022/09/02 03:59:14;;;;;;;8.45;5.80;;;;;;;10.58;69.14;100723.53;1718570;83;21467;-69
2022/09/02 04:01:40;;;;;;;9.03;4.55;;;;;;;10.64;69.13;100727.53;1717232;82;21741;-72
2022/09/02 04:04:07;;;;;;;7.55;4.42;;;;;;;10.69;69.12;100727.53;1718183;83;21063;-70
2022/09/02 04:06:35;;;;;;;8.08;4.08;;;;;;;10.74;69.12;100736.45;1698130;83;21044;-70
2022/09/02 04:09:03;;;;;;;7.80;4.35;;;;;;;10.79;69.10;100735.14;1717968;82;21011;-72
2022/09/02 04:11:30;;;;;;;7.75;4.20;;;;;;;10.85;69.09;100729.89;1692071;83;21039;-71
2022/09/02 04:13:58;;;;;;;11.18;4.35;;;;;;;10.91;69.07;100733.41;1689820;85;21884;-71
2022/09/02 04:16:27;;;;;;;9.08;4.05;;;;;;;10.94;69.07;100730.52;1700583;82;21047;-71
2022/09/02 04:18:57;;;;;;;6.72;4.00;;;;;;;10.98;69.06;100739.05;1715664;83;21079;-72
2022/09/02 04:21:24;;;;;;;7.62;4.42;;;;;;;11.03;69.07;100738.23;1689810;84;21059;-71
2022/09/02 04:23:54;;;;;;;9.03;4.95;;;;;;;11.06;69.11;100738.00;1692925;83;21016;-71
2022/09/02 04:26:21;;;;;;;6.78;4.37;;;;;;;11.14;69.12;100732.98;1704257;83;22567;-70
2022/09/02 04:28:50;;;;;;;7.50;4.10;;;;;;;11.20;69.14;100740.45;1700800;83;21035;-70
2022/09/02 04:31:18;;;;;;;8.23;4.12;;;;;;;11.26;69.11;100745.73;1719847;83;21075;-70
2022/09/02 04:33:46;;;;;;;6.08;4.00;;;;;;;11.32;69.11;100743.95;1722950;83;21051;-70
2022/09/02 04:36:15;;;;;;;9.45;3.75;;;;;;;11.39;69.09;100745.18;1721366;81;20916;-71
2022/09/02 04:38:42;;;;;;;8.33;3.60;;;;;;;11.49;69.08;100742.67;1693242;83;21832;-70
2022/09/02 04:41:13;;;;;;;8.35;3.85;;;;;;;11.59;68.99;100738.34;1670400;85;21043;-71
2022/09/02 04:43:41;;;;;;;6.65;3.40;;;;;;;11.72;68.78;100750.97;1676544;84;21012;-71
2022/09/02 04:46:11;;;;;;;6.00;3.35;;;;;;;11.85;68.62;100754.36;1701111;83;21028;-71
2022/09/02 04:48:39;;;;;;;5.60;3.05;;;;;;;11.98;68.33;100748.96;1723038;82;21114;-71
2022/09/02 04:51:09;;;;;;;6.47;3.35;;;;;;;12.13;68.05;100750.85;1720686;82;21930;-73
2022/09/02 04:53:39;;;;;;;6.97;3.42;;;;;;;12.26;67.73;100753.73;1723342;82;21173;-71
2022/09/02 04:56:08;;;;;;;5.33;3.60;;;;;;;12.39;67.42;100750.94;1717574;83;21027;-72
2022/09/02 04:58:35;;;;;;;7.90;3.00;;;;;;;12.50;67.18;100749.57;1707333;82;21058;-71
2022/09/02 05:01:14;;;;;;;12.15;3.17;;;;;;;12.61;66.82;100761.45;1722439;83;21039;-71
2022/09/02 05:03:42;;;;;;;7.37;3.30;;;;;;;12.73;66.42;100757.44;1723269;83;22554;-71
2022/09/02 05:06:13;;;;;;;8.65;3.65;;;;;;;12.84;65.92;100758.75;1723053;83;21038;-71
2022/09/02 05:08:42;;;;;;;5.65;3.50;;;;;;;12.97;65.59;100762.05;1696226;83;21059;-71
2022/09/02 05:11:15;;;;;;;8.08;3.52;;;;;;;13.07;65.34;100766.94;1723252;83;21458;-71
2022/09/02 05:13:48;;;;;;;5.17;3.58;;;;;;;13.20;65.15;100769.92;1722149;83;21063;-72
2022/09/02 05:16:20;;;;;;;5.58;3.40;;;;;;;13.33;64.98;100769.26;1722243;83;21926;-70
2022/09/02 05:18:49;;;;;;;5.15;3.50;;;;;;;13.44;64.69;100777.14;1722577;82;21039;-69
2022/09/02 05:21:16;;;;;;;8.08;3.70;;;;;;;13.54;64.47;100775.87;1722341;82;21119;-69
2022/09/02 05:23:44;;;;;;;7.90;3.87;;;;;;;13.65;64.22;100779.77;1711607;83;21068;-67
2022/09/02 05:26:12;;;;;;;7.65;3.67;;;;;;;13.73;63.89;100774.16;1693482;84;21057;-69
2022/09/02 05:28:39;;;;;;;5.50;3.60;;;;;;;13.82;63.57;100779.66;1698527;83;21844;-69
2022/09/02 05:31:11;;;;;;;6.05;3.58;;;;;;;13.91;63.24;100775.72;1677935;83;21057;-71
2022/09/02 05:33:39;;;;;;;4.85;3.37;;;;;;;14.00;62.93;100784.21;1698354;83;21599;-69
2022/09/02 05:36:16;;;;;;;6.25;3.45;;;;;;;14.07;62.47;100777.02;1674102;83;21067;-70
2022/09/02 05:38:44;;;;;;;6.20;3.40;;;;;;;14.17;62.28;100780.55;1674742;84;21071;-70
2022/09/02 05:41:24;;;;;;;7.72;3.83;;;;;;;14.29;61.96;100782.14;1651721;86;21792;-68
2022/09/02 05:43:56;;;;;;;6.90;4.20;;;;;;;14.38;61.65;100783.98;1656800;85;21108;-70
2022/09/02 05:46:24;;;;;;;6.60;3.52;;;;;;;14.48;61.33;100782.71;1677395;84;21091;-69
2022/09/02 05:49:07;;;;;;;6.47;3.42;;;;;;;14.57;61.20;100784.06;1680641;83;21097;-69
2022/09/02 05:51:56;;;;;;;5.45;3.25;;;;;;;14.69;60.98;100786.59;1661009;84;21051;-70
2022/09/02 05:54:27;;;;;;;4.55;2.80;;;;;;;14.83;60.69;100789.66;1676961;84;21828;-68
2022/09/02 05:56:56;;;;;;;7.40;3.05;;;;;;;14.94;59.90;100795.33;1682917;83;21495;-70
2022/09/02 05:59:25;;;;;;;6.03;2.87;;;;;;;15.05;59.30;100788.53;1654847;86;21593;-68
2022/09/02 06:01:53;;;;;;;7.90;2.80;;;;;;;15.17;58.94;100787.44;1655773;85;21128;-71
2022/09/02 06:04:21;;;;;;;6.12;2.75;;;;;;;15.30;58.21;100793.78;1658669;86;22123;-70
2022/09/02 06:06:49;;;;;;;3.92;2.72;;;;;;;15.41;57.72;100787.46;1653086;86;22372;-69
2022/09/02 06:09:19;;;;;;;3.98;2.40;;;;;;;15.51;57.17;100792.77;1672970;83;20998;-69
2022/09/02 06:11:48;;;;;;;5.45;2.40;;;;;;;15.58;56.77;100799.20;1693434;84;21161;-69
2022/09/02 06:14:17;;;;;;;3.55;1.90;;;;;;;15.64;56.39;100799.52;1682713;84;21059;-69
2022/09/02 06:16:45;;;;;;;3.75;1.87;;;;;;;15.72;55.96;100798.77;1699209;84;21036;-68
2022/09/02 06:19:14;;;;;;;4.05;1.80;;;;;;;15.80;55.20;100800.22;1678052;83;22304;-70
2022/09/02 06:21:41;;;;;;;2.55;1.50;;;;;;;15.90;54.72;100797.52;1678046;84;21566;-69
2022/09/02 06:24:10;;;;;;;2.52;1.40;;;;;;;16.01;54.19;100804.83;1674164;82;21048;-70
2022/09/02 06:26:39;;;;;;;5.58;1.35;;;;;;;16.11;53.13;100802.63;1720126;83;22081;-70
2022/09/02 06:29:07;;;;;;;3.25;1.30;;;;;;;16.19;52.92;100800.91;1710649;83;21073;-73
2022/09/02 06:31:34;;;;;;;2.72;1.20;;;;;;;16.31;52.33;100802.91;1720268;83;22332;-73
2022/09/02 06:34:03;;;;;;;1.65;0.93;;;;;;;16.41;51.39;100805.02;1720647;83;21035;-70
2022/09/02 06:36:30;;;;;;;2.35;1.10;;;;;;;16.50;50.86;100806.80;1721785;83;21058;-70
2022/09/02 06:38:58;;;;;;;5.65;1.10;;;;;;;16.56;49.56;100805.34;1719765;81;21130;-69
2022/09/02 06:41:28;;;;;;;2.92;1.10;;;;;;;16.65;49.31;100804.94;1721337;83;21078;-70
2022/09/02 06:43:57;;;;;;;2.87;0.98;;;;;;;16.72;48.47;100811.39;1719819;83;21942;-68
2022/09/02 06:46:32;;;;;;;2.42;1.10;;;;;;;16.78;48.26;100812.09;1722235;83;21054;-70
2022/09/02 06:49:00;;;;;;;4.08;1.05;;;;;;;16.82;47.71;100810.83;1702530;83;21051;-67
2022/09/02 06:51:40;;;;;;;4.00;1.02;;;;;;;16.83;47.25;100808.00;1721419;83;21047;-69
2022/09/02 06:54:09;;;;;;;3.50;0.70;;;;;;;16.92;46.65;100810.25;1721470;81;21180;-70
2022/09/02 06:56:37;;;;;;;1.75;1.10;;;;;;;17.04;47.01;100809.52;1721310;83;21800;-69
2022/09/02 06:59:04;;;;;;;1.40;0.90;;;;;;;17.15;47.00;100808.78;1722049;83;21074;-71
2022/09/02 07:01:35;;;;;;;2.17;0.88;;;;;;;17.27;46.19;100805.88;1721230;82;21995;-70
2022/09/02 07:06:52;;;;;;;6.12;0.80;;;;;;;17.41;45.20;100818.69;1712537;82;21073;-70
2022/09/02 07:09:31;;;;;;;2.83;0.72;;;;;;;17.41;44.37;100823.53;1720044;82;21023;-70
2022/09/02 07:11:58;;;;;;;2.98;0.80;;;;;;;17.46;44.95;100824.38;1713055;82;21094;-69
2022/09/02 07:14:27;;;;;;;3.15;0.80;;;;;;;17.54;44.43;100827.12;1693112;83;21042;-70
2022/09/02 07:16:56;;;;;;;0.93;0.60;;;;;;;17.56;43.97;100825.12;1707496;81;21520;-70
2022/09/02 07:19:25;;;;;;;4.58;0.70;;;;;;;17.57;44.09;100827.33;1719272;83;21489;-68
2022/09/02 07:21:53;;;;;;;2.05;0.60;;;;;;;17.63;43.54;100828.02;1693229;83;21783;-69
2022/09/02 07:24:20;;;;;;;1.52;0.80;;;;;;;17.74;43.79;100829.13;1708368;83;21079;-68
2022/09/02 07:26:47;;;;;;;0.98;0.60;;;;;;;17.92;42.71;100829.07;1690271;84;21047;-68
2022/09/02 07:29:14;;;;;;;1.30;0.70;;;;;;;18.06;42.76;100824.98;1679679;84;21514;-68
2022/09/02 07:31:44;;;;;;;1.07;0.60;;;;;;;18.15;42.40;100832.89;1683558;84;21077;-69
2022/09/02 07:34:11;;;;;;;3.83;0.90;;;;;;;18.21;42.75;100828.22;1687405;84;21946;-68
2022/09/02 07:36:39;;;;;;;2.87;0.93;;;;;;;18.27;42.63;100824.92;1707223;84;21568;-68
2022/09/02 07:39:08;;;;;;;1.15;0.80;;;;;;;18.34;42.95;100818.94;1695957;84;21465;-68
2022/09/02 07:41:37;;;;;;;1.98;0.70;;;;;;;18.34;42.01;100818.44;1705814;84;21049;-68
2022/09/02 07:44:05;;;;;;;2.15;0.65;;;;;;;18.27;41.45;100814.72;1701616;83;21486;-68
2022/09/02 07:46:32;;;;;;;2.70;0.80;;;;;;;18.25;41.39;100814.05;1693598;84;21833;-70
2022/09/02 07:49:00;;;;;;;1.30;0.70;;;;;;;18.23;40.68;100818.20;1700199;84;21092;-70
2022/09/02 07:51:27;;;;;;;1.42;0.80;;;;;;;18.27;40.77;100818.73;1707221;84;22183;-71
2022/09/02 07:53:54;;;;;;;3.27;0.93;;;;;;;18.34;40.72;100816.27;1689151;84;21076;-71
2022/09/02 07:56:21;;;;;;;2.12;0.82;;;;;;;18.40;40.91;100813.76;1689609;84;21056;-69
2022/09/02 07:58:49;;;;;;;1.52;0.85;;;;;;;18.42;40.72;100814.93;1703501;84;21846;-69
2022/09/02 08:01:16;;;;;;;2.75;0.70;;;;;;;18.49;41.02;100814.62;1706061;82;21526;-68
2022/09/02 08:03:44;;;;;;;4.45;0.70;;;;;;;18.62;39.96;100812.31;1700272;84;21583;-68
2022/09/02 08:06:12;;;;;;;2.15;1.12;;;;;;;18.65;39.03;100811.20;1693786;84;21082;-68
2022/09/02 08:08:41;;;;;;;1.65;0.80;;;;;;;18.68;40.25;100809.03;1703718;84;21055;-69
2022/09/02 08:11:08;;;;;;;2.42;0.80;;;;;;;18.74;38.99;100810.23;1702235;84;21858;-69
2022/09/02 08:13:36;;;;;;;1.37;0.80;;;;;;;18.79;38.38;100810.05;1685053;84;21048;-68
2022/09/02 08:16:04;;;;;;;2.90;0.90;;;;;;;18.81;37.70;100808.55;1701503;84;21076;-69
2022/09/02 08:18:30;;;;;;;1.40;0.80;;;;;;;18.90;37.74;100809.39;1706839;84;21062;-68
2022/09/02 08:20:58;;;;;;;3.80;0.93;;;;;;;18.98;37.16;100814.27;1682266;83;21083;-68
2022/09/02 08:23:25;;;;;;;3.10;0.90;;;;;;;19.06;38.34;100808.09;1706895;84;21933;-70
2022/09/02 08:25:51;;;;;;;2.90;1.00;;;;;;;19.15;38.14;100809.27;1701235;83;21071;-70
2022/09/02 08:28:18;;;;;;;1.50;0.80;;;;;;;19.24;38.31;100806.09;1699720;84;21056;-72
2022/09/02 08:30:44;;;;;;;2.65;0.82;;;;;;;19.28;37.91;100798.55;1690759;84;21036;-71
2022/09/02 08:33:11;;;;;;;1.15;0.95;;;;;;;19.28;37.40;100803.39;1698960;84;21044;-70
2022/09/02 08:35:38;;;;;;;1.45;0.90;;;;;;;19.29;37.42;100800.22;1682400;84;21831;-70
2022/09/02 08:38:06;;;;;;;3.52;1.55;;;;;;;19.27;37.43;100803.06;1672178;84;20994;-70
2022/09/02 08:40:40;;;;;;;3.00;0.95;;;;;;;19.32;38.32;100807.94;1671516;85;21485;-68
2022/09/02 08:43:38;;;;;;;2.12;0.80;;;;;;;19.41;38.03;100805.09;1691451;84;21081;-70
2022/09/02 08:46:09;;;;;;;1.37;0.68;;;;;;;19.56;36.48;100811.12;1699647;84;21036;-70
2022/09/02 08:49:07;;;;;;;2.90;0.70;;;;;;;19.60;35.94;100799.07;1699297;84;21979;-70
2022/09/02 08:51:50;;;;;;;1.67;0.60;;;;;;;19.66;37.06;100796.52;1702350;83;21080;-70
2022/09/02 08:54:22;;;;;;;4.12;0.80;;;;;;;19.82;36.14;100802.87;1688716;84;21033;-68
2022/09/02 08:56:50;;;;;;;2.33;0.70;;;;;;;19.99;36.54;100795.95;1670959;84;21097;-70
2022/09/02 08:59:22;;;;;;;1.72;0.60;;;;;;;20.13;36.05;100788.19;1675515;84;21079;-68
2022/09/02 09:01:54;;;;;;;1.02;0.70;;;;;;;20.25;36.08;100784.10;1688457;83;21738;-70
2022/09/02 09:05:07;;;;;;;1.87;0.80;;;;;;;20.42;36.11;100787.55;1686734;84;21091;-70
2022/09/02 09:07:45;;;;;;;1.63;0.60;;;;;;;20.55;35.28;100792.69;1684985;83;21052;-73
2022/09/02 09:10:29;;;;;;;2.55;0.60;;;;;;;20.58;33.86;100801.75;1695420;84;21185;-69
2022/09/02 09:13:23;;;;;;;3.15;0.70;;;;;;;20.46;34.44;100786.20;1686408;83;21546;-69
2022/09/02 09:16:18;;;;;;;0.68;0.50;;;;;;;20.48;34.08;100785.55;1675044;83;21846;-69
2022/09/02 09:19:13;;;;;;;0.75;0.60;;;;;;;20.62;34.66;100780.75;1663329;85;21022;-70
2022/09/02 09:21:41;;;;;;;0.90;0.60;;;;;;;20.69;32.26;100779.55;1681863;84;21171;-70
2022/09/02 09:24:23;;;;;;;1.42;0.68;;;;;;;20.60;32.77;100778.76;1672793;84;21205;-69
2022/09/02 09:26:49;;;;;;;1.37;0.50;;;;;;;20.62;32.81;100775.89;1699852;82;21058;-71
2022/09/02 09:29:16;;;;;;;0.50;0.40;;;;;;;20.73;32.72;100778.17;1704006;82;21874;-68
2022/09/02 09:31:43;;;;;;;2.45;0.47;;;;;;;20.81;32.31;100780.80;1705552;83;21004;-69
2022/09/02 09:34:15;;;;;;;0.82;0.50;;;;;;;20.91;32.29;100790.80;1715462;82;21477;-70
2022/09/02 09:36:47;;;;;;;1.02;0.50;;;;;;;21.02;31.84;100793.06;1713644;83;21059;-69
2022/09/02 09:39:30;;;;;;;1.42;0.50;;;;;;;21.11;31.47;100792.49;1700860;82;21055;-69
2022/09/02 09:42:01;;;;;;;2.15;0.57;;;;;;;21.10;31.18;100786.28;1699584;83;22963;-70
2022/09/02 09:44:45;;;;;;;1.17;0.50;;;;;;;21.13;31.66;100787.77;1691823;83;21569;-69
2022/09/02 09:47:24;;;;;;;1.20;0.42;;;;;;;21.23;31.94;100774.09;1704977;82;21082;-70
2022/09/02 09:49:54;;;;;;;1.70;0.50;;;;;;;21.39;30.93;100776.16;1694631;83;21070;-74
2022/09/02 09:52:29;;;;;;;1.10;0.68;;;;;;;21.49;31.31;100779.09;1659579;85;21130;-71
2022/09/02 09:55:19;;;;;;;1.57;0.72;;;;;;;21.62;31.06;100777.97;1687593;83;21806;-71
2022/09/02 09:57:47;;;;;;;1.67;0.70;;;;;;;21.82;31.39;100784.98;1680136;85;21063;-70
2022/09/02 10:00:22;;;;;;;1.32;0.60;;;;;;;22.00;30.54;100782.25;1695974;83;21107;-71
2022/09/02 10:02:51;;;;;;;1.50;0.42;;;;;;;21.96;30.30;100784.14;1703138;82;21054;-73
2022/09/02 10:05:29;;;;;;;0.60;0.40;;;;;;;21.93;31.76;100782.66;1707140;83;21032;-74
2022/09/02 10:08:02;;;;;;;2.80;0.78;;;;;;;22.07;31.09;100770.24;1690047;84;21847;-71
2022/09/02 10:10:30;;;;;;;1.60;0.62;;;;;;;22.25;30.98;100771.20;1697583;83;20943;-70
2022/09/02 10:13:17;;;;;;;2.45;0.70;;;;;;;22.38;29.95;100774.55;1662101;85;21066;-70
2022/09/02 10:16:26;;;;;;;2.98;0.70;;;;;;;22.39;29.81;100775.73;1691841;84;21071;-71
2022/09/02 10:19:25;;;;;;;1.00;0.70;;;;;;;22.33;29.87;100764.37;1713030;83;21051;-71
2022/09/02 10:22:34;;;;;;;2.35;0.78;;;;;;;22.48;30.41;100769.70;1688461;85;21795;-71
2022/09/02 10:25:52;;;;;;;1.15;0.70;;;;;;;22.64;29.65;100776.20;1710130;83;22156;-71
2022/09/02 10:28:46;;;;;;;3.45;1.00;;;;;;;22.85;29.72;100779.45;1672016;85;21440;-71
2022/09/02 10:31:46;;;;;;;0.95;0.65;;;;;;;23.14;30.18;100778.48;1668325;85;21052;-70
2022/09/02 10:34:30;;;;;;;1.27;0.90;;;;;;;23.50;29.33;100786.45;1672387;85;21035;-70
2022/09/02 10:37:25;;;;;;;2.75;0.65;;;;;;;23.60;28.28;100779.41;1689491;84;22480;-70
2022/09/02 10:40:15;;;;;;;3.65;0.70;;;;;;;23.65;27.77;100774.27;1657628;85;21014;-70
2022/09/02 10:43:04;;;;;;;1.32;0.68;;;;;;;23.48;28.10;100778.25;1698959;84;21052;-71
2022/09/02 10:45:45;;;;;;;3.90;0.72;;;;;;;23.50;28.89;100772.97;1699244;84;21076;-70
2022/09/02 10:48:38;;;;;;;1.25;0.60;;;;;;;23.68;28.74;100787.34;1699863;84;21005;-71
2022/09/02 10:51:36;;;;;;;0.57;0.53;;;;;;;23.85;28.11;100782.48;1700667;84;21757;-71
2022/09/02 10:54:28;;;;;;;1.75;0.60;;;;;;;23.96;27.82;100785.45;1699378;84;21016;-71
2022/09/02 10:57:03;;;;;;;1.25;0.80;;;;;;;24.05;27.83;100773.97;1700316;83;21040;-71
2022/09/02 10:59:45;;;;;;;1.35;0.60;;;;;;;24.22;27.51;100772.61;1701968;84;21528;-71
2022/09/02 11:02:44;;;;;;;1.95;0.68;;;;;;;24.28;27.56;100776.34;1691280;83;21024;-71
2022/09/02 11:05:28;;;;;;;1.50;0.80;;;;;;;24.24;27.79;100764.30;1658161;84;21811;-71
2022/09/02 11:08:16;;;;;;;0.80;0.60;;;;;;;24.25;27.61;100768.14;1675699;84;21063;-73
2022/09/02 11:10:57;;;;;;;1.75;0.60;;;;;;;24.31;27.52;100771.05;1669180;84;20989;-72
2022/09/02 11:13:31;;;;;;;3.70;0.70;;;;;;;24.23;27.77;100769.39;1697183;84;21081;-73
2022/09/02 11:16:06;;;;;;;3.35;0.70;;;;;;;24.15;28.14;100770.91;1691274;84;21464;-71
2022/09/02 11:18:54;;;;;;;1.15;0.60;;;;;;;24.15;28.19;100774.95;1691818;84;21900;-73
2022/09/02 11:21:32;;;;;;;0.93;0.78;;;;;;;24.22;27.89;100779.84;1683444;84;20957;-72
2022/09/02 11:24:35;;;;;;;1.07;0.53;;;;;;;24.37;27.60;100772.98;1683790;84;20957;-72
2022/09/02 11:27:32;;;;;;;1.57;0.93;;;;;;;24.39;27.55;100770.39;1688935;83;21186;-72
2022/09/02 11:30:20;;;;;;;5.40;0.80;;;;;;;24.37;27.17;100767.06;1671897;84;21016;-72
2022/09/02 11:33:20;;;;;;;4.37;1.02;;;;;;;24.44;27.47;100767.93;1661075;85;21833;-72
2022/09/02 11:35:47;;;;;;;3.15;0.80;;;;;;;24.48;27.64;100772.40;1655678;85;21493;-72
2022/09/02 11:38:37;;;;;;;1.42;0.80;;;;;;;24.62;26.97;100771.94;1672936;85;21593;-71
2022/09/02 11:41:36;;;;;;;4.62;0.80;;;;;;;24.62;27.16;100767.88;1679880;85;22184;-73
2022/09/02 11:44:24;;;;;;;1.12;0.70;;;;;;;24.70;27.08;100769.02;1687882;85;20953;-71
2022/09/02 11:47:15;;;;;;;0.80;0.60;;;;;;;24.71;27.31;100762.61;1673279;84;22542;-72
2022/09/02 11:50:10;;;;;;;3.65;0.60;;;;;;;24.79;26.87;100763.73;1671989;84;20968;-72
2022/09/02 11:53:06;;;;;;;1.80;0.60;;;;;;;24.92;27.66;100767.00;1687807;83;21546;-72